createdAt,value
2022-09-01T00:00:15.112Z,94231.53
2022-09-01T00:02:44.659Z,94227.41
2022-09-01T00:05:12.975Z,94226.41
2022-09-01T00:07:42.381Z,94226.94
2022-09-01T00:10:11.249Z,94209.81
2022-09-01T00:12:40.211Z,94218.88
2022-09-01T00:15:12.161Z,94219.53
2022-09-01T00:17:40.391Z,94216.91
2022-09-01T00:20:10.067Z,94219.41
2022-09-01T00:22:38.268Z,94198.69
2022-09-01T00:25:08.848Z,94206.94
2022-09-01T00:27:36.851Z,94205.00
2022-09-01T00:30:05.919Z,94207.81
2022-09-01T00:32:33.950Z,94208.16
2022-09-01T00:35:02.174Z,94214.53
2022-09-01T00:37:30.120Z,94213.50
2022-09-01T00:39:58.135Z,94220.44
2022-09-01T00:42:27.494Z,94226.16
2022-09-01T00:44:55.522Z,94223.81
2022-09-01T00:47:23.540Z,94220.50
2022-09-01T00:49:53.375Z,94227.78
2022-09-01T00:52:25.702Z,94231.78
2022-09-01T00:54:59.299Z,94224.69
2022-09-01T00:57:29.105Z,94232.84
2022-09-01T01:00:00.412Z,94236.72
2022-09-01T01:02:28.866Z,94233.63
2022-09-01T01:05:00.522Z,94234.09
2022-09-01T01:07:29.769Z,94228.47
2022-09-01T01:09:58.327Z,94236.13
2022-09-01T01:12:30.821Z,94235.75
2022-09-01T01:15:01.187Z,94238.03
2022-09-01T01:17:29.263Z,94234.38
2022-09-01T01:20:15.920Z,94243.06
2022-09-01T01:23:03.723Z,94234.47
2022-09-01T01:25:36.844Z,94231.28
2022-09-01T01:28:07.847Z,94225.06
2022-09-01T01:30:37.161Z,94229.72
2022-09-01T01:33:05.844Z,94234.41
2022-09-01T01:35:34.950Z,94228.56
2022-09-01T01:38:07.947Z,94231.84
2022-09-01T01:40:39.112Z,94234.66
2022-09-01T01:43:07.377Z,94230.81
2022-09-01T01:45:35.631Z,94233.00
2022-09-01T01:48:10.773Z,94244.72
2022-09-01T01:50:38.919Z,94235.75
2022-09-01T01:53:11.538Z,94253.91
2022-09-01T01:55:43.873Z,94248.94
2022-09-01T01:58:16.089Z,94258.34
2022-09-01T02:00:47.344Z,94256.19
2022-09-01T02:03:19.082Z,94248.56
2022-09-01T02:05:49.230Z,94251.56
2022-09-01T02:08:21.928Z,94259.88
2022-09-01T02:10:53.119Z,94264.47
2022-09-01T02:13:26.598Z,94257.59
2022-09-01T02:15:56.889Z,94235.53
2022-09-01T02:18:28.001Z,94264.25
2022-09-01T02:20:58.888Z,94266.28
2022-09-01T02:23:26.996Z,94257.94
2022-09-01T02:26:17.614Z,94265.13
2022-09-01T02:28:55.552Z,94267.75
2022-09-01T02:31:24.807Z,94264.19
2022-09-01T02:33:54.454Z,94262.59
2022-09-01T02:36:23.046Z,94257.41
2022-09-01T02:38:53.695Z,94255.44
2022-09-01T02:41:29.152Z,94256.44
2022-09-01T02:43:57.345Z,94251.28
2022-09-01T02:46:26.232Z,94254.50
2022-09-01T02:48:54.652Z,94250.09
2022-09-01T02:51:26.291Z,94249.94
2022-09-01T02:53:55.135Z,94236.00
2022-09-01T02:56:27.593Z,94245.94
2022-09-01T02:58:56.612Z,94245.88
2022-09-01T03:01:29.577Z,94245.72
2022-09-01T03:04:00.058Z,94237.84
2022-09-01T03:06:28.577Z,94247.59
2022-09-01T03:08:59.734Z,94238.34
2022-09-01T03:11:30.505Z,94243.16
2022-09-01T03:14:04.194Z,94239.50
2022-09-01T03:16:33.239Z,94247.53
2022-09-01T03:19:03.296Z,94246.28
2022-09-01T03:21:32.282Z,94242.09
2022-09-01T03:24:02.192Z,94235.78
2022-09-01T03:26:32.569Z,94247.09
2022-09-01T03:29:00.583Z,94251.13
2022-09-01T03:31:31.028Z,94253.13
2022-09-01T03:34:00.672Z,94250.81
2022-09-01T03:36:30.128Z,94255.81
2022-09-01T03:38:58.563Z,94260.84
2022-09-01T03:41:29.555Z,94260.53
2022-09-01T03:44:00.331Z,94253.91
2022-09-01T03:46:36.253Z,94252.66
2022-09-01T03:49:07.555Z,94256.16
2022-09-01T03:51:38.997Z,94255.72
2022-09-01T03:54:07.819Z,94252.13
2022-09-01T03:56:36.131Z,94252.50
2022-09-01T03:59:05.643Z,94251.19
2022-09-01T04:01:43.509Z,94250.59
2022-09-01T04:04:13.877Z,94251.25
2022-09-01T04:06:43.274Z,94258.25
2022-09-01T04:09:11.278Z,94257.88
2022-09-01T04:11:45.220Z,94256.25
2022-09-01T04:14:16.127Z,94254.25
2022-09-01T04:17:02.907Z,94244.19
2022-09-01T04:19:34.867Z,94248.69
2022-09-01T04:22:03.240Z,94238.41
2022-09-01T04:24:33.718Z,94242.44
2022-09-01T04:27:03.980Z,94238.66
2022-09-01T04:29:33.443Z,94243.28
2022-09-01T04:32:05.577Z,94244.66
2022-09-01T04:34:37.903Z,94243.66
2022-09-01T04:37:10.244Z,94241.78
2022-09-01T04:39:39.254Z,94237.72
2022-09-01T04:42:09.357Z,94241.94
2022-09-01T04:44:40.442Z,94242.88
2022-09-01T04:47:10.966Z,94243.25
2022-09-01T04:49:39.203Z,94242.47
2022-09-01T04:52:07.245Z,94241.59
2022-09-01T04:54:37.435Z,94237.09
2022-09-01T04:57:07.079Z,94235.63
2022-09-01T04:59:35.947Z,94238.25
2022-09-01T05:02:07.813Z,94230.56
2022-09-01T05:04:36.731Z,94237.66
2022-09-01T05:07:06.332Z,94238.91
2022-09-01T05:09:36.665Z,94239.69
2022-09-01T05:12:12.444Z,94239.41
2022-09-01T05:14:48.724Z,94254.06
2022-09-01T05:17:18.732Z,94243.13
2022-09-01T05:19:51.183Z,94242.25
2022-09-01T05:22:23.131Z,94238.97
2022-09-01T05:24:55.015Z,94243.00
2022-09-01T05:27:24.134Z,94248.06
2022-09-01T05:29:53.250Z,94237.03
2022-09-01T05:32:26.148Z,94243.66
2022-09-01T05:34:54.546Z,94239.78
2022-09-01T05:37:23.011Z,94233.66
2022-09-01T05:39:52.488Z,94230.81
2022-09-01T05:42:20.504Z,94236.44
2022-09-01T05:44:52.583Z,94236.81
2022-09-01T05:47:23.129Z,94241.19
2022-09-01T05:49:53.678Z,94240.94
2022-09-01T05:52:25.632Z,94235.56
2022-09-01T05:54:56.606Z,94241.59
2022-09-01T05:57:34.465Z,94242.56
2022-09-01T06:00:11.021Z,94244.38
2022-09-01T06:02:41.194Z,94246.16
2022-09-01T06:05:11.060Z,94235.84
2022-09-01T06:07:42.852Z,94239.47
2022-09-01T06:10:11.650Z,94231.69
2022-09-01T06:12:40.734Z,94235.69
2022-09-01T06:15:16.082Z,94225.31
2022-09-01T06:17:46.383Z,94226.78
2022-09-01T06:20:18.285Z,94229.53
2022-09-01T06:22:47.485Z,94228.97
2022-09-01T06:25:17.247Z,94232.06
2022-09-01T06:27:46.082Z,94232.44
2022-09-01T06:30:23.745Z,94225.28
2022-09-01T06:32:54.727Z,94242.53
2022-09-01T06:35:25.253Z,94229.84
2022-09-01T06:37:53.230Z,94234.31
2022-09-01T06:40:21.357Z,94233.22
2022-09-01T06:42:52.469Z,94231.03
2022-09-01T06:45:22.551Z,94232.78
2022-09-01T06:47:59.375Z,94232.69
2022-09-01T06:53:35.138Z,94236.56
2022-09-01T06:56:04.041Z,94235.19
2022-09-01T06:58:32.560Z,94236.00
2022-09-01T07:01:01.032Z,94245.25
2022-09-01T07:03:29.114Z,94237.94
2022-09-01T07:06:00.861Z,94242.38
2022-09-01T07:08:29.991Z,94245.59
2022-09-01T07:16:51.822Z,94235.59
2022-09-01T07:19:21.175Z,94238.00
2022-09-01T07:24:40.164Z,94244.50
2022-09-01T07:27:09.559Z,94249.41
2022-09-01T07:29:39.354Z,94253.72
2022-09-01T07:34:58.003Z,94248.56
2022-09-01T07:43:19.549Z,94250.22
2022-09-01T07:46:36.797Z,94257.97
2022-09-01T07:49:02.877Z,94257.38
2022-09-01T07:51:35.934Z,94258.03
2022-09-01T07:54:07.106Z,94253.50
2022-09-01T07:56:39.746Z,94255.84
2022-09-01T07:59:10.602Z,94265.97
2022-09-01T08:01:44.027Z,94275.66
2022-09-01T08:04:12.317Z,94264.63
2022-09-01T08:06:40.982Z,94275.47
2022-09-01T08:09:11.656Z,94268.75
2022-09-01T08:12:01.177Z,94273.53
2022-09-01T08:14:33.749Z,94274.09
2022-09-01T08:17:16.793Z,94276.34
2022-09-01T08:19:47.038Z,94281.84
2022-09-01T08:22:15.387Z,94294.31
2022-09-01T08:24:44.721Z,94292.84
2022-09-01T08:27:12.694Z,94294.38
2022-09-01T08:29:42.207Z,94279.69
2022-09-01T08:32:11.335Z,94283.03
2022-09-01T08:34:39.820Z,94285.41
2022-09-01T08:37:07.917Z,94285.59
2022-09-01T08:39:35.931Z,94282.59
2022-09-01T08:42:15.018Z,94281.84
2022-09-01T08:44:50.652Z,94290.72
2022-09-01T08:47:32.426Z,94291.09
2022-09-01T08:50:09.129Z,94284.06
2022-09-01T08:52:40.178Z,94280.69
2022-09-01T08:55:16.097Z,94280.38
2022-09-01T08:57:47.863Z,94274.56
2022-09-01T09:00:20.250Z,94270.16
2022-09-01T09:03:06.154Z,94271.84
2022-09-01T09:05:44.655Z,94273.97
2022-09-01T09:08:26.694Z,94265.31
2022-09-01T09:11:05.559Z,94278.06
2022-09-01T09:13:49.625Z,94275.69
2022-09-01T09:16:21.027Z,94279.19
2022-09-01T09:18:56.136Z,94282.66
2022-09-01T09:21:29.955Z,94287.97
2022-09-01T09:24:03.924Z,94287.75
2022-09-01T09:26:42.293Z,94291.53
2022-09-01T09:29:12.008Z,94290.72
2022-09-01T09:31:49.942Z,94292.84
2022-09-01T09:34:30.207Z,94294.72
2022-09-01T09:36:58.223Z,94289.66
2022-09-01T09:39:26.814Z,94284.63
2022-09-01T09:42:09.629Z,94287.47
2022-09-01T09:44:45.072Z,94261.16
2022-09-01T09:47:46.574Z,94281.59
2022-09-01T09:50:26.472Z,94288.22
2022-09-01T09:53:15.321Z,94284.78
2022-09-01T09:56:05.629Z,94289.03
2022-09-01T09:58:38.424Z,94293.81
2022-09-01T10:01:17.499Z,94283.69
2022-09-01T10:03:50.470Z,94282.38
2022-09-01T10:06:32.673Z,94284.50
2022-09-01T10:09:02.339Z,94282.03
2022-09-01T10:11:41.487Z,94278.75
2022-09-01T10:14:35.428Z,94272.59
2022-09-01T10:17:17.175Z,94276.97
2022-09-01T10:19:56.882Z,94274.22
2022-09-01T10:22:25.668Z,94267.25
2022-09-01T10:24:53.972Z,94261.94
2022-09-01T10:27:25.249Z,94254.56
2022-09-01T10:30:14.082Z,94265.66
2022-09-01T10:32:54.979Z,94258.28
2022-09-01T10:35:28.286Z,94255.88
2022-09-01T10:37:59.161Z,94265.44
2022-09-01T10:40:43.376Z,94256.97
2022-09-01T10:43:28.511Z,94254.63
2022-09-01T10:46:03.702Z,94249.97
2022-09-01T10:48:47.908Z,94253.97
2022-09-01T10:51:56.466Z,94255.69
2022-09-01T10:54:55.792Z,94251.28
2022-09-01T10:57:44.531Z,94248.81
2022-09-01T11:01:17.082Z,94246.44
2022-09-01T11:03:57.115Z,94243.72
2022-09-01T11:07:14.509Z,94241.88
2022-09-01T11:09:44.827Z,94239.03
2022-09-01T11:12:42.593Z,94235.28
2022-09-01T11:15:36.924Z,94242.78
2022-09-01T11:18:11.167Z,94236.34
2022-09-01T11:20:42.022Z,94233.06
2022-09-01T11:23:21.809Z,94237.09
2022-09-01T11:28:43.156Z,94225.19
2022-09-01T11:31:33.347Z,94218.69
2022-09-01T11:34:11.614Z,94224.69
2022-09-01T11:36:48.635Z,94208.09
2022-09-01T11:39:31.132Z,94214.59
2022-09-01T11:42:04.238Z,94199.56
2022-09-01T11:44:39.687Z,94201.25
2022-09-01T11:47:17.143Z,94194.75
2022-09-01T11:49:54.991Z,94192.34
2022-09-01T11:52:26.066Z,94184.19
2022-09-01T11:54:55.805Z,94178.72
2022-09-01T11:57:27.510Z,94185.28
2022-09-01T11:59:57.305Z,94182.00
2022-09-01T12:02:27.719Z,94172.34
2022-09-01T12:04:57.043Z,94178.66
2022-09-01T12:07:38.495Z,94173.34
2022-09-01T12:10:15.901Z,94173.47
2022-09-01T12:12:43.948Z,94177.47
2022-09-01T12:15:20.472Z,94170.00
2022-09-01T12:17:48.572Z,94177.03
2022-09-01T12:20:30.989Z,94175.13
2022-09-01T12:23:00.723Z,94172.56
2022-09-01T12:25:32.329Z,94168.31
2022-09-01T12:28:02.116Z,94166.34
2022-09-01T12:30:30.756Z,94161.59
2022-09-01T12:33:24.626Z,94166.34
2022-09-01T12:35:57.488Z,94158.44
2022-09-01T12:38:30.883Z,94162.84
2022-09-01T12:41:00.381Z,94159.28
2022-09-01T12:43:30.624Z,94155.16
2022-09-01T12:46:01.049Z,94151.38
2022-09-01T12:48:33.489Z,94154.44
2022-09-01T12:51:04.375Z,94149.03
2022-09-01T12:53:37.168Z,94161.31
2022-09-01T12:56:22.819Z,94165.22
2022-09-01T12:58:54.698Z,94152.09
2022-09-01T13:01:29.730Z,94154.34
2022-09-01T13:04:25.965Z,94157.56
2022-09-01T13:06:55.028Z,94151.50
2022-09-01T13:09:23.077Z,94139.66
2022-09-01T13:12:08.216Z,94141.63
2022-09-01T13:14:36.387Z,94142.44
2022-09-01T13:17:04.464Z,94141.84
2022-09-01T13:19:32.605Z,94135.44
2022-09-01T13:22:00.621Z,94124.28
2022-09-01T13:24:31.319Z,94133.97
2022-09-01T13:29:50.142Z,94130.94
2022-09-01T13:32:21.430Z,94132.56
2022-09-01T13:34:51.950Z,94132.41
2022-09-01T13:37:20.520Z,94128.91
2022-09-01T13:39:48.730Z,94130.94
2022-09-01T13:42:18.969Z,94138.31
2022-09-01T13:44:49.793Z,94132.09
2022-09-01T13:47:35.460Z,94136.38
2022-09-01T13:50:11.939Z,94138.28
2022-09-01T13:52:41.807Z,94140.47
2022-09-01T13:55:13.301Z,94137.50
2022-09-01T13:57:42.842Z,94141.88
2022-09-01T14:00:16.478Z,94139.22
2022-09-01T14:02:50.376Z,94141.72
2022-09-01T14:05:18.862Z,94135.50
2022-09-01T14:07:46.955Z,94138.00
2022-09-01T14:10:15.151Z,94129.19
2022-09-01T14:12:45.825Z,94130.78
2022-09-01T14:15:18.582Z,94136.88
2022-09-01T14:17:56.277Z,94138.53
2022-09-01T14:20:31.427Z,94134.75
2022-09-01T14:23:05.480Z,94126.91
2022-09-01T14:25:34.940Z,94126.53
2022-09-01T14:28:05.344Z,94124.81
2022-09-01T14:30:34.040Z,94127.53
2022-09-01T14:33:03.860Z,94119.47
2022-09-01T14:35:33.246Z,94127.19
2022-09-01T14:38:02.762Z,94124.00
2022-09-01T14:40:30.811Z,94129.53
2022-09-01T14:42:58.900Z,94131.25
2022-09-01T14:45:29.801Z,94127.81
2022-09-01T14:48:01.466Z,94133.38
2022-09-01T14:50:32.727Z,94124.00
2022-09-01T14:53:02.812Z,94118.38
2022-09-01T14:55:32.010Z,94117.88
2022-09-01T14:58:00.967Z,94115.00
2022-09-01T15:00:31.747Z,94117.88
2022-09-01T15:03:00.030Z,94121.50
2022-09-01T15:05:28.023Z,94117.88
2022-09-01T15:07:55.988Z,94132.16
2022-09-01T15:10:26.277Z,94122.94
2022-09-01T15:12:56.145Z,94133.72
2022-09-01T15:15:25.446Z,94138.78
2022-09-01T15:17:54.864Z,94134.66
2022-09-01T15:20:40.667Z,94137.94
2022-09-01T15:23:08.714Z,94128.31
2022-09-01T15:25:36.744Z,94127.63
2022-09-01T15:28:04.885Z,94126.09
2022-09-01T15:30:33.743Z,94124.06
2022-09-01T15:33:03.165Z,94123.28
2022-09-01T15:35:32.088Z,94122.34
2022-09-01T15:38:00.681Z,94129.78
2022-09-01T15:40:29.398Z,94133.88
2022-09-01T15:42:59.578Z,94140.22
2022-09-01T15:45:31.648Z,94147.69
2022-09-01T15:47:59.645Z,94152.75
2022-09-01T15:50:29.379Z,94155.44
2022-09-01T15:53:01.473Z,94167.53
2022-09-01T15:55:31.734Z,94159.28
2022-09-01T15:58:00.479Z,94162.31
2022-09-01T16:00:29.701Z,94180.59
2022-09-01T16:03:01.721Z,94173.47
2022-09-01T16:05:32.075Z,94176.97
2022-09-01T16:08:01.443Z,94182.31
2022-09-01T16:10:33.563Z,94188.94
2022-09-01T16:13:04.745Z,94182.84
2022-09-01T16:15:34.895Z,94172.25
2022-09-01T16:18:28.670Z,94179.16
2022-09-01T16:21:02.738Z,94174.16
2022-09-01T16:23:41.526Z,94175.72
2022-09-01T16:26:11.809Z,94171.25
2022-09-01T16:28:40.592Z,94171.84
2022-09-01T16:31:13.345Z,94164.16
2022-09-01T16:33:48.366Z,94165.28
2022-09-01T16:36:30.256Z,94165.91
2022-09-01T16:39:08.684Z,94153.97
2022-09-01T16:41:48.208Z,94145.25
2022-09-01T16:44:24.499Z,94141.78
2022-09-01T16:47:04.390Z,94134.09
2022-09-01T16:49:38.868Z,94124.00
2022-09-01T16:52:17.201Z,94125.88
2022-09-01T16:54:59.374Z,94134.28
2022-09-01T16:57:37.035Z,94123.41
2022-09-01T17:00:09.354Z,94113.06
2022-09-01T17:02:50.318Z,94108.53
2022-09-01T17:05:25.727Z,94098.75
2022-09-01T17:08:06.942Z,94102.94
2022-09-01T17:10:42.276Z,94095.53
2022-09-01T17:13:20.363Z,94098.16
2022-09-01T17:15:55.526Z,94089.16
2022-09-01T17:18:33.507Z,94088.84
2022-09-01T17:21:09.505Z,94088.53
2022-09-01T17:23:46.232Z,94086.16
2022-09-01T17:26:20.670Z,94093.88
2022-09-01T17:28:55.397Z,94085.38
2022-09-01T17:31:44.704Z,94085.63
2022-09-01T17:34:23.972Z,94093.56
2022-09-01T17:37:02.021Z,94093.00
2022-09-01T17:39:42.164Z,94090.00
2022-09-01T17:42:21.657Z,94087.31
2022-09-01T17:44:56.211Z,94086.53
2022-09-01T17:47:37.263Z,94091.50
2022-09-01T17:50:14.172Z,94087.00
2022-09-01T17:52:53.191Z,94099.44
2022-09-01T17:55:42.922Z,94089.66
2022-09-01T17:58:23.523Z,94090.97
2022-09-01T18:01:01.668Z,94092.53
2022-09-01T18:03:45.537Z,94090.69
2022-09-01T18:06:21.847Z,94100.72
2022-09-01T18:08:53.987Z,94111.03
2022-09-01T18:11:30.408Z,94121.16
2022-09-01T18:14:03.585Z,94118.22
2022-09-01T18:16:37.852Z,94126.69
2022-09-01T18:19:15.003Z,94125.13
2022-09-01T18:21:49.628Z,94132.56
2022-09-01T18:24:21.951Z,94130.47
2022-09-01T18:26:53.155Z,94125.69
2022-09-01T18:29:23.237Z,94136.25
2022-09-01T18:32:13.395Z,94129.28
2022-09-01T18:35:01.854Z,94124.69
2022-09-01T18:37:36.222Z,94134.38
2022-09-01T18:40:13.364Z,94139.88
2022-09-01T18:42:48.505Z,94145.97
2022-09-01T18:45:25.600Z,94144.50
2022-09-01T18:48:01.887Z,94152.72
2022-09-01T18:50:34.560Z,94149.53
2022-09-01T18:53:16.629Z,94141.31
2022-09-01T18:55:52.930Z,94153.22
2022-09-01T18:58:38.451Z,94155.09
2022-09-01T19:01:10.028Z,94158.03
2022-09-01T19:03:43.105Z,94166.72
2022-09-01T19:06:27.272Z,94166.72
2022-09-01T19:09:12.758Z,94163.22
2022-09-01T19:12:01.672Z,94158.13
2022-09-01T19:14:42.254Z,94157.31
2022-09-01T19:17:30.983Z,94149.06
2022-09-01T19:20:03.433Z,94152.53
2022-09-01T19:22:40.567Z,94157.25
2022-09-01T19:25:28.699Z,94153.78
2022-09-01T19:28:02.058Z,94175.72
2022-09-01T19:30:35.419Z,94179.09
2022-09-01T19:33:06.090Z,94172.16
2022-09-01T19:35:37.929Z,94177.88
2022-09-01T19:38:08.908Z,94175.19
2022-09-01T19:40:40.674Z,94168.50
2022-09-01T19:43:13.572Z,94169.28
2022-09-01T19:45:56.109Z,94178.66
2022-09-01T19:48:30.589Z,94175.22
2022-09-01T19:51:04.551Z,94192.72
2022-09-01T19:53:41.540Z,94188.00
2022-09-01T19:56:14.728Z,94188.16
2022-09-01T19:58:53.445Z,94183.47
2022-09-01T20:01:37.593Z,94178.25
2022-09-01T20:04:14.910Z,94179.38
2022-09-01T20:06:48.380Z,94168.00
2022-09-01T20:09:21.125Z,94176.97
2022-09-01T20:11:53.993Z,94174.81
2022-09-01T20:14:54.276Z,94179.66
2022-09-01T20:17:30.435Z,94165.97
2022-09-01T20:20:05.046Z,94175.97
2022-09-01T20:22:40.449Z,94172.84
2022-09-01T20:25:11.363Z,94175.16
2022-09-01T20:27:48.854Z,94173.75
2022-09-01T20:30:19.863Z,94163.31
2022-09-01T20:32:59.434Z,94157.78
2022-09-01T20:35:37.579Z,94166.06
2022-09-01T20:38:35.586Z,94156.25
2022-09-01T20:41:13.199Z,94158.09
2022-09-01T20:43:46.390Z,94152.56
2022-09-01T20:46:19.214Z,94155.19
2022-09-01T20:48:49.856Z,94149.94
2022-09-01T20:51:22.823Z,94142.19
2022-09-01T20:54:09.863Z,94139.00
2022-09-01T20:56:50.846Z,94150.13
2022-09-01T20:59:23.772Z,94154.38
2022-09-01T21:01:59.580Z,94151.53
2022-09-01T21:04:45.247Z,94154.75
2022-09-01T21:07:17.682Z,94155.28
2022-09-01T21:09:57.405Z,94163.50
2022-09-01T21:12:34.732Z,94160.88
2022-09-01T21:15:20.280Z,94163.50
2022-09-01T21:17:58.383Z,94169.25
2022-09-01T21:20:48.211Z,94166.06
2022-09-01T21:23:16.397Z,94174.06
2022-09-01T21:25:45.204Z,94178.78
2022-09-01T21:28:20.218Z,94179.66
2022-09-01T21:30:52.050Z,94178.06
2022-09-01T21:33:20.136Z,94180.94
2022-09-01T21:35:49.500Z,94187.50
2022-09-01T21:38:17.539Z,94189.03
2022-09-01T21:40:46.419Z,94187.13
2022-09-01T21:43:19.142Z,94183.34
2022-09-01T21:45:47.842Z,94193.06
2022-09-01T21:48:16.060Z,94187.72
2022-09-01T21:50:44.460Z,94189.91
2022-09-01T21:53:14.763Z,94178.81
2022-09-01T21:55:43.822Z,94188.63
2022-09-01T21:58:11.932Z,94193.44
2022-09-01T22:00:43.254Z,94187.84
2022-09-01T22:03:12.752Z,94192.94
2022-09-01T22:05:42.444Z,94201.44
2022-09-01T22:08:12.133Z,94201.59
2022-09-01T22:10:45.832Z,94199.50
2022-09-01T22:13:15.837Z,94196.41
2022-09-01T22:15:45.858Z,94192.78
2022-09-01T22:18:14.595Z,94202.66
2022-09-01T22:20:43.506Z,94190.34
2022-09-01T22:23:12.148Z,94187.50
2022-09-01T22:25:44.597Z,94185.28
2022-09-01T22:28:13.031Z,94179.25
2022-09-01T22:30:46.002Z,94181.16
2022-09-01T22:33:14.342Z,94175.88
2022-09-01T22:35:43.407Z,94172.19
2022-09-01T22:38:11.924Z,94169.19
2022-09-01T22:40:46.969Z,94170.94
2022-09-01T22:46:06.495Z,94165.28
2022-09-01T22:48:34.496Z,94161.34
2022-09-01T22:51:07.120Z,94153.63
2022-09-01T22:53:35.811Z,94157.63
2022-09-01T22:56:12.431Z,94157.06
2022-09-01T22:58:40.987Z,94156.69
2022-09-01T23:01:14.966Z,94142.69
2022-09-01T23:03:43.901Z,94142.91
2022-09-01T23:06:14.350Z,94137.88
2022-09-01T23:08:53.409Z,94139.44
2022-09-01T23:11:22.937Z,94143.34
2022-09-01T23:13:51.075Z,94141.28
2022-09-01T23:16:22.528Z,94131.75
2022-09-01T23:18:51.509Z,94126.91
2022-09-01T23:21:21.313Z,94122.66
2022-09-01T23:23:55.185Z,94121.03
2022-09-01T23:26:29.139Z,94123.59
2022-09-01T23:28:57.814Z,94116.16
2022-09-01T23:31:28.834Z,94115.50
2022-09-01T23:33:56.891Z,94106.56
2022-09-01T23:36:27.085Z,94110.88
2022-09-01T23:38:56.654Z,94118.31
2022-09-01T23:41:31.000Z,94122.06
2022-09-01T23:44:01.373Z,94118.31
2022-09-01T23:46:31.416Z,94129.00
2022-09-01T23:48:59.500Z,94122.19
2022-09-01T23:51:28.585Z,94120.84
2022-09-01T23:53:56.605Z,94126.75
2022-09-01T23:56:28.313Z,94124.81
2022-09-01T23:58:56.988Z,94118.50
